Time;durP1;ratioP1;P1;durP2;ratioP2;P2;SDS_P1;SDS_P2;PMS_P1;PMS_P2;Temp;Humidity;BMP_temperature;BMP_pressure;BME280_temperature;BME280_humidity;BME280_pressure;Samples;Min_cycle;Max_cycle;Signal;HPM_P1;HPM_P2
2021/06/17 00:01:13;;;;;;;14.82;7.45;;;19.40;99.90;;;;;;4978276;28;20118;-91
2021/06/17 00:03:39;;;;;;;9.85;7.20;;;19.40;99.90;;;;;;4978886;28;20043;-91
2021/06/17 00:06:06;;;;;;;11.00;8.20;;;19.40;99.90;;;;;;4977976;28;20043;-92
2021/06/17 00:08:33;;;;;;;10.15;7.40;;;19.30;99.90;;;;;;4978668;28;20501;-91
2021/06/17 00:11:00;;;;;;;11.63;8.00;;;19.30;99.90;;;;;;5013039;28;20092;-92
2021/06/17 00:13:30;;;;;;;11.88;8.45;;;19.30;99.90;;;;;;4983994;29;20062;-92
2021/06/17 00:16:03;;;;;;;11.10;8.30;;;19.30;99.90;;;;;;4977727;28;20268;-92
2021/06/17 00:18:31;;;;;;;13.35;8.63;;;19.20;99.90;;;;;;5011527;28;20535;-91
2021/06/17 00:21:02;;;;;;;12.70;8.77;;;19.20;99.90;;;;;;4994185;28;20066;-91
2021/06/17 00:23:33;;;;;;;12.35;8.63;;;19.20;99.90;;;;;;4978707;28;20034;-91
2021/06/17 00:26:01;;;;;;;13.50;8.43;;;19.20;99.90;;;;;;4993280;28;20045;-88
2021/06/17 00:28:28;;;;;;;11.68;8.25;;;19.10;99.90;;;;;;4977886;28;20046;-92
2021/06/17 00:30:55;;;;;;;12.85;8.70;;;19.10;99.90;;;;;;4977713;28;20121;-90
2021/06/17 00:33:22;;;;;;;10.63;8.95;;;19.10;99.90;;;;;;5010288;28;20039;-91
2021/06/17 00:35:49;;;;;;;12.55;9.05;;;19.10;99.90;;;;;;4993709;28;20039;-91
2021/06/17 00:38:16;;;;;;;12.68;9.38;;;19.10;99.90;;;;;;4961335;28;20073;-91
2021/06/17 00:40:44;;;;;;;13.25;9.52;;;19.00;99.90;;;;;;4993082;28;20129;-90
2021/06/17 00:43:11;;;;;;;11.20;9.07;;;19.10;99.90;;;;;;5009910;28;20109;-91
2021/06/17 00:45:45;;;;;;;12.45;9.77;;;19.00;99.90;;;;;;4961966;28;20146;-91
2021/06/17 00:48:14;;;;;;;14.48;9.85;;;19.00;99.90;;;;;;4993417;28;20487;-91
2021/06/17 00:50:53;;;;;;;12.55;9.93;;;19.00;99.90;;;;;;4978051;28;20058;-90
2021/06/17 00:53:31;;;;;;;14.50;10.40;;;19.00;99.90;;;;;;4992752;28;20042;-91
2021/06/17 00:56:00;;;;;;;14.30;10.07;;;19.00;99.90;;;;;;4977895;28;20113;-91
2021/06/17 00:58:27;;;;;;;14.77;11.02;;;19.00;99.90;;;;;;4977249;28;20049;-91
2021/06/17 01:00:55;;;;;;;14.90;11.55;;;19.00;99.90;;;;;;4993174;28;20038;-92
2021/06/17 01:03:23;;;;;;;16.98;11.80;;;19.00;99.90;;;;;;4976893;28;20042;-92
2021/06/17 01:05:50;;;;;;;16.73;12.30;;;19.00;99.90;;;;;;5010360;28;20113;-92
2021/06/17 01:08:37;;;;;;;13.80;11.10;;;18.90;99.90;;;;;;4976901;28;20066;-91
2021/06/17 01:11:09;;;;;;;16.35;12.13;;;18.90;99.90;;;;;;4993190;28;20470;-90
2021/06/17 01:13:56;;;;;;;15.43;12.15;;;18.90;99.90;;;;;;4992731;28;20139;-92
2021/06/17 01:16:38;;;;;;;15.45;12.50;;;18.90;99.90;;;;;;4992756;28;20114;-91
2021/06/17 01:19:31;;;;;;;14.05;11.52;;;18.90;99.90;;;;;;4992967;28;20042;-88
2021/06/17 01:21:58;;;;;;;15.75;13.05;;;18.90;99.90;;;;;;4970823;28;20082;-90
2021/06/17 01:24:46;;;;;;;17.40;12.15;;;18.80;99.90;;;;;;4992488;28;20065;-91
2021/06/17 01:27:31;;;;;;;15.77;12.45;;;18.80;99.90;;;;;;4992439;28;20039;-90
2021/06/17 01:30:11;;;;;;;17.55;13.13;;;18.80;99.90;;;;;;4992673;28;20495;-90
2021/06/17 01:32:44;;;;;;;15.77;12.73;;;18.80;99.90;;;;;;5010321;28;20129;-90
2021/06/17 01:35:14;;;;;;;16.05;13.70;;;18.70;99.90;;;;;;4992511;28;20066;-91
2021/06/17 01:37:42;;;;;;;17.75;12.95;;;18.70;99.90;;;;;;4977664;28;20066;-90
2021/06/17 01:40:10;;;;;;;14.07;12.52;;;18.70;99.90;;;;;;4960571;28;20035;-89
2021/06/17 01:42:40;;;;;;;15.52;13.07;;;18.70;99.90;;;;;;5009699;28;20463;-90
2021/06/17 01:45:08;;;;;;;16.73;13.30;;;18.70;99.90;;;;;;4992494;28;20043;-90
2021/06/17 01:47:36;;;;;;;17.83;14.00;;;18.70;99.90;;;;;;4960923;28;20046;-91
2021/06/17 01:50:05;;;;;;;15.40;13.77;;;18.70;99.90;;;;;;4976169;28;20064;-91
2021/06/17 01:52:33;;;;;;;15.68;13.45;;;18.60;99.90;;;;;;4976310;28;20039;-92
2021/06/17 01:55:01;;;;;;;20.40;15.15;;;18.60;99.90;;;;;;4976718;28;20377;-91
2021/06/17 01:57:29;;;;;;;18.80;14.75;;;18.60;99.90;;;;;;4960563;28;20399;-92
2021/06/17 01:59:58;;;;;;;18.75;15.18;;;18.60;99.90;;;;;;4976746;28;20476;-92
2021/06/17 02:02:28;;;;;;;19.08;15.43;;;18.60;99.90;;;;;;4976809;28;20114;-91
2021/06/17 02:04:56;;;;;;;17.13;14.02;;;18.60;99.90;;;;;;4993119;28;20046;-91
2021/06/17 02:07:24;;;;;;;17.13;14.73;;;18.60;99.90;;;;;;4976664;28;20039;-92
2021/06/17 02:09:53;;;;;;;18.67;14.90;;;18.50;99.90;;;;;;4976514;28;20047;-91
2021/06/17 02:12:20;;;;;;;17.33;15.25;;;18.50;99.90;;;;;;4993261;28;20041;-90
2021/06/17 02:14:48;;;;;;;17.85;15.88;;;18.50;99.90;;;;;;4977430;28;20476;-91
2021/06/17 02:17:16;;;;;;;16.65;14.95;;;18.50;99.90;;;;;;5011096;28;20062;-90
2021/06/17 02:19:44;;;;;;;16.83;15.07;;;18.40;99.90;;;;;;4980177;28;20035;-89
2021/06/17 02:22:13;;;;;;;19.00;15.38;;;18.50;99.90;;;;;;5011738;28;20129;-89
2021/06/17 02:24:44;;;;;;;18.38;16.35;;;18.40;99.90;;;;;;5011718;28;20039;-91
2021/06/17 02:27:18;;;;;;;18.73;16.73;;;18.50;99.90;;;;;;4980825;28;20505;-91
2021/06/17 02:29:48;;;;;;;21.83;16.75;;;18.40;99.90;;;;;;5029570;28;20034;-90
2021/06/17 02:32:20;;;;;;;19.95;16.70;;;18.40;99.90;;;;;;5011271;28;20046;-90
2021/06/17 02:34:49;;;;;;;18.50;16.58;;;18.40;99.90;;;;;;5011911;28;20089;-92
2021/06/17 02:37:18;;;;;;;19.75;16.73;;;18.40;99.90;;;;;;5002751;28;20034;-90
2021/06/17 02:39:48;;;;;;;20.48;17.20;;;18.40;99.90;;;;;;4992105;28;20058;-89
2021/06/17 02:42:18;;;;;;;20.90;18.70;;;18.40;99.90;;;;;;4991521;28;20098;-90
2021/06/17 02:44:47;;;;;;;24.70;18.52;;;18.40;99.90;;;;;;4986215;28;20133;-92
2021/06/17 02:47:14;;;;;;;21.95;19.05;;;18.40;99.90;;;;;;4995167;28;20133;-91
2021/06/17 02:49:44;;;;;;;20.98;18.77;;;18.50;99.90;;;;;;4995772;28;20125;-90
2021/06/17 02:52:11;;;;;;;21.92;17.73;;;18.50;99.90;;;;;;5010883;28;20113;-89
2021/06/17 02:54:39;;;;;;;22.35;18.15;;;18.50;99.90;;;;;;4994251;28;20042;-91
2021/06/17 02:57:12;;;;;;;21.77;18.42;;;18.50;99.90;;;;;;4994912;28;20030;-90
2021/06/17 03:00:06;;;;;;;21.13;18.85;;;18.50;99.90;;;;;;5010247;28;20446;-89
2021/06/17 03:03:00;;;;;;;20.60;18.23;;;18.50;99.90;;;;;;5013142;28;20141;-91
2021/06/17 03:05:55;;;;;;;20.90;18.30;;;18.60;99.90;;;;;;5014132;28;20038;-90
2021/06/17 03:08:57;;;;;;;22.73;19.88;;;18.60;99.90;;;;;;4979568;28;20125;-91
2021/06/17 03:11:31;;;;;;;19.67;17.63;;;18.60;99.90;;;;;;5001007;28;20050;-89
2021/06/17 03:14:04;;;;;;;26.73;19.63;;;18.60;99.90;;;;;;5014522;28;20125;-89
2021/06/17 03:16:34;;;;;;;21.67;19.30;;;18.60;99.90;;;;;;5014053;28;20038;-90
2021/06/17 03:19:01;;;;;;;19.55;17.58;;;18.60;99.90;;;;;;4998927;28;20042;-90
2021/06/17 03:21:32;;;;;;;21.40;19.10;;;18.70;99.90;;;;;;4998084;28;20065;-90
2021/06/17 03:24:03;;;;;;;19.70;17.48;;;18.70;99.90;;;;;;4998669;28;20057;-89
2021/06/17 03:26:30;;;;;;;22.02;19.30;;;18.70;99.90;;;;;;5014142;28;20034;-88
2021/06/17 03:28:58;;;;;;;22.58;19.20;;;18.70;99.90;;;;;;4998448;28;20042;-89
2021/06/17 03:31:28;;;;;;;21.00;18.63;;;18.70;99.90;;;;;;4997728;28;20046;-89
2021/06/17 03:33:57;;;;;;;23.42;19.35;;;18.60;99.90;;;;;;5014197;28;20097;-89
2021/06/17 03:36:25;;;;;;;21.98;19.05;;;18.70;99.90;;;;;;5013861;28;20066;-88
2021/06/17 03:38:54;;;;;;;23.80;20.40;;;18.70;99.90;;;;;;4982070;28;20042;-89
2021/06/17 03:41:24;;;;;;;21.40;18.38;;;18.70;99.90;;;;;;5013685;28;20049;-88
2021/06/17 03:43:52;;;;;;;20.65;18.45;;;18.70;99.90;;;;;;5013876;28;20042;-88
2021/06/17 03:46:20;;;;;;;19.13;17.02;;;18.70;99.90;;;;;;5013823;28;20070;-89
2021/06/17 03:48:47;;;;;;;19.83;17.73;;;18.70;99.90;;;;;;5013204;28;20398;-89
2021/06/17 03:51:15;;;;;;;21.73;17.88;;;18.70;99.90;;;;;;4997656;28;20498;-88
2021/06/17 03:53:45;;;;;;;22.58;16.27;;;18.80;99.90;;;;;;5013147;28;20042;-88
2021/06/17 03:56:13;;;;;;;20.00;17.33;;;18.80;99.90;;;;;;5013834;28;20065;-88
2021/06/17 03:58:44;;;;;;;19.23;17.17;;;18.80;99.90;;;;;;5013386;28;20065;-88
2021/06/17 04:01:12;;;;;;;19.55;17.15;;;18.80;99.90;;;;;;5013516;28;20093;-88
2021/06/17 04:03:40;;;;;;;20.33;17.85;;;18.80;99.90;;;;;;4997142;28;20081;-88
2021/06/17 04:06:11;;;;;;;19.42;17.50;;;18.90;99.90;;;;;;4997604;28;20030;-89
2021/06/17 04:08:44;;;;;;;18.23;16.27;;;18.90;99.90;;;;;;5013099;28;20471;-87
2021/06/17 04:11:13;;;;;;;19.48;17.42;;;18.90;99.90;;;;;;4997594;28;20179;-88
2021/06/17 04:13:42;;;;;;;21.98;18.55;;;19.00;99.90;;;;;;5011767;28;20054;-88
2021/06/17 04:16:13;;;;;;;19.15;17.23;;;19.00;99.90;;;;;;4997504;28;20038;-88
2021/06/17 04:18:43;;;;;;;21.02;16.48;;;19.00;99.90;;;;;;5013083;28;20506;-88
2021/06/17 04:21:12;;;;;;;18.30;16.25;;;19.10;99.90;;;;;;4997243;28;20446;-89
2021/06/17 04:23:42;;;;;;;18.73;16.65;;;19.10;99.90;;;;;;5030228;28;20042;-89
2021/06/17 04:26:10;;;;;;;18.60;16.60;;;19.10;99.90;;;;;;5013455;28;20042;-89
2021/06/17 04:28:37;;;;;;;20.98;16.75;;;19.20;99.90;;;;;;4981148;28;20034;-89
2021/06/17 04:31:05;;;;;;;21.35;16.75;;;19.20;99.90;;;;;;5013180;28;20490;-89
2021/06/17 04:33:32;;;;;;;19.85;17.20;;;19.30;99.90;;;;;;5012851;28;20479;-89
2021/06/17 04:36:02;;;;;;;21.42;16.98;;;19.30;99.90;;;;;;5013233;28;20038;-89
2021/06/17 04:38:29;;;;;;;19.48;16.15;;;19.30;99.90;;;;;;5012484;28;20042;-90
2021/06/17 04:40:56;;;;;;;17.70;15.98;;;19.40;99.90;;;;;;5013108;28;20039;-89
2021/06/17 04:43:23;;;;;;;19.30;16.30;;;19.50;99.90;;;;;;5012936;28;20042;-88
2021/06/17 04:45:52;;;;;;;18.67;16.02;;;19.60;99.90;;;;;;4996457;28;20043;-89
2021/06/17 04:48:22;;;;;;;18.33;15.63;;;19.70;99.90;;;;;;5012779;28;20084;-90
2021/06/17 04:50:49;;;;;;;18.98;16.10;;;19.80;99.90;;;;;;5012263;28;20046;-88
2021/06/17 04:53:18;;;;;;;18.08;15.48;;;19.80;99.90;;;;;;4980949;28;20034;-89
2021/06/17 04:55:55;;;;;;;18.67;16.67;;;19.90;99.90;;;;;;4996486;28;20473;-89
2021/06/17 04:58:24;;;;;;;19.02;15.15;;;19.90;99.90;;;;;;4997102;28;20450;-90
2021/06/17 05:00:51;;;;;;;17.85;15.65;;;20.00;99.90;;;;;;5012199;28;20403;-90
2021/06/17 05:03:19;;;;;;;17.83;15.77;;;20.10;99.90;;;;;;4996563;28;20034;-89
2021/06/17 05:05:48;;;;;;;18.77;15.43;;;20.10;99.90;;;;;;4995920;28;20045;-89
2021/06/17 05:10:57;;;;;;;18.00;14.75;;;20.30;99.90;;;;;;5012460;28;20401;-89
2021/06/17 05:13:29;;;;;;;16.70;14.43;;;20.30;99.90;;;;;;4997077;28;20101;-90
2021/06/17 05:15:58;;;;;;;19.30;15.68;;;20.30;99.90;;;;;;5012195;28;20037;-88
2021/06/17 05:18:28;;;;;;;16.50;14.25;;;20.40;99.90;;;;;;5013561;28;20089;-88
2021/06/17 05:20:56;;;;;;;18.67;14.13;;;20.50;99.90;;;;;;4995917;28;20050;-90
2021/06/17 05:23:23;;;;;;;17.23;13.95;;;20.60;99.90;;;;;;5012153;28;20403;-91
2021/06/17 05:25:51;;;;;;;16.45;14.50;;;20.70;99.90;;;;;;4995496;28;20035;-91
2021/06/17 05:28:22;;;;;;;17.42;14.52;;;20.80;99.90;;;;;;5012062;28;20036;-91
2021/06/17 05:30:54;;;;;;;17.88;13.70;;;20.80;99.90;;;;;;5011317;28;20396;-89
2021/06/17 05:33:21;;;;;;;16.92;13.50;;;20.80;99.90;;;;;;4995772;28;20137;-90
2021/06/17 05:35:52;;;;;;;15.80;14.15;;;21.00;99.90;;;;;;5012699;28;20033;-89
2021/06/17 05:38:21;;;;;;;16.02;13.80;;;21.10;99.90;;;;;;5011753;28;20038;-90
2021/06/17 05:40:51;;;;;;;15.38;13.68;;;21.20;99.90;;;;;;5003103;28;20045;-89
2021/06/17 05:43:19;;;;;;;21.17;13.68;;;21.40;99.90;;;;;;4976572;28;20045;-90
2021/06/17 05:45:46;;;;;;;15.68;13.10;;;21.40;99.90;;;;;;5000468;28;20026;-89
2021/06/17 05:48:13;;;;;;;15.18;13.57;;;21.50;99.90;;;;;;5012032;28;20394;-90
2021/06/17 05:50:40;;;;;;;17.63;13.40;;;21.60;99.90;;;;;;5006651;28;20125;-91
2021/06/17 05:53:07;;;;;;;15.23;13.13;;;21.70;99.90;;;;;;4976461;28;20064;-90
2021/06/17 05:55:34;;;;;;;16.45;13.55;;;21.80;99.90;;;;;;4976554;28;20049;-91
2021/06/17 05:58:02;;;;;;;16.13;12.60;;;21.90;99.90;;;;;;4978361;28;20477;-89
2021/06/17 06:00:29;;;;;;;13.55;12.15;;;21.90;99.90;;;;;;4988937;29;20033;-89
2021/06/17 06:02:56;;;;;;;13.50;12.07;;;22.10;99.90;;;;;;4957586;29;20536;-89
2021/06/17 06:05:23;;;;;;;13.93;11.65;;;22.20;99.90;;;;;;4972775;29;20134;-91
2021/06/17 06:08:00;;;;;;;13.50;11.57;;;22.20;99.90;;;;;;4925135;29;20039;-89
2021/06/17 06:10:28;;;;;;;14.63;10.98;;;22.30;99.90;;;;;;4963972;28;20034;-88
2021/06/17 06:12:56;;;;;;;11.77;10.10;;;22.30;99.90;;;;;;4974675;29;20082;-88
2021/06/17 06:15:23;;;;;;;12.50;10.13;;;22.40;99.90;;;;;;4957029;29;20036;-89
2021/06/17 06:17:50;;;;;;;11.93;10.13;;;22.60;99.90;;;;;;4956450;29;20066;-91
2021/06/17 06:20:17;;;;;;;11.43;9.80;;;22.70;99.90;;;;;;4956452;29;20039;-80
2021/06/17 06:22:44;;;;;;;13.75;9.80;;;22.90;99.90;;;;;;4955525;29;20050;-82
2021/06/17 06:25:12;;;;;;;11.32;10.10;;;23.00;99.90;;;;;;4972036;29;20058;-79
2021/06/17 06:27:41;;;;;;;13.05;9.13;;;23.00;99.90;;;;;;4994127;28;20384;-77
2021/06/17 06:30:08;;;;;;;10.88;8.65;;;23.20;99.90;;;;;;5027807;28;20081;-80
2021/06/17 06:32:35;;;;;;;15.57;9.32;;;23.30;99.90;;;;;;4974427;28;20034;-83
2021/06/17 06:35:05;;;;;;;12.98;8.90;;;23.40;99.90;;;;;;4988440;28;20062;-81
2021/06/17 06:37:32;;;;;;;11.57;8.68;;;23.50;99.90;;;;;;5004623;28;20451;-76
2021/06/17 06:39:59;;;;;;;14.50;8.80;;;23.70;99.90;;;;;;4994112;28;20114;-81
2021/06/17 06:42:25;;;;;;;11.40;8.57;;;23.80;99.90;;;;;;4979521;28;20043;-82
2021/06/17 06:44:52;;;;;;;10.60;8.38;;;23.90;99.90;;;;;;4990484;28;20344;-82
2021/06/17 06:47:19;;;;;;;10.85;8.25;;;24.00;99.90;;;;;;5002470;28;20109;-80
2021/06/17 06:49:46;;;;;;;13.65;8.50;;;24.10;99.90;;;;;;4997283;28;20034;-78
2021/06/17 06:52:12;;;;;;;13.68;8.98;;;24.20;99.90;;;;;;5013572;28;20045;-83
2021/06/17 06:54:39;;;;;;;11.02;8.00;;;24.30;99.90;;;;;;4997860;28;20402;-81
2021/06/17 06:57:08;;;;;;;12.82;7.72;;;24.50;99.90;;;;;;4981822;28;20034;-82
2021/06/17 06:59:34;;;;;;;11.32;7.30;;;24.60;99.90;;;;;;5013641;28;20042;-82
2021/06/17 07:02:03;;;;;;;8.98;7.13;;;24.80;99.90;;;;;;4974411;29;20035;-83
2021/06/17 07:04:30;;;;;;;12.20;7.85;;;24.90;99.90;;;;;;4975399;29;20452;-82
2021/06/17 07:06:57;;;;;;;11.18;7.43;;;25.10;99.90;;;;;;4977009;28;20102;-82
2021/06/17 07:09:23;;;;;;;10.13;7.03;;;25.20;99.90;;;;;;5007494;28;20518;-82
2021/06/17 07:11:50;;;;;;;10.65;6.72;;;25.30;99.90;;;;;;4962153;28;20042;-83
2021/06/17 07:14:17;;;;;;;11.18;7.32;;;25.50;99.90;;;;;;4962053;28;20047;-83
2021/06/17 07:16:44;;;;;;;10.13;6.70;;;25.60;99.90;;;;;;4994074;28;20043;-83
2021/06/17 07:19:11;;;;;;;9.32;6.82;;;25.70;99.90;;;;;;4977586;28;20097;-83
2021/06/17 07:21:38;;;;;;;8.77;6.90;;;25.80;99.90;;;;;;4962465;28;20047;-82
2021/06/17 07:24:05;;;;;;;9.40;6.65;;;25.90;99.90;;;;;;4960485;28;20505;-83
2021/06/17 07:26:32;;;;;;;9.82;6.15;;;26.00;99.90;;;;;;4962036;28;20399;-84
2021/06/17 07:29:00;;;;;;;11.00;7.30;;;26.10;99.90;;;;;;4977420;28;20035;-84
2021/06/17 07:31:27;;;;;;;8.52;6.53;;;26.20;99.90;;;;;;4977381;28;20046;-84
2021/06/17 07:33:55;;;;;;;8.95;6.22;;;26.30;99.90;;;;;;4976178;28;20554;-85
2021/06/17 07:36:22;;;;;;;7.57;5.90;;;26.30;99.90;;;;;;4993081;28;20039;-84
2021/06/17 07:38:48;;;;;;;10.48;6.45;;;26.50;99.90;;;;;;4969417;28;20166;-84
2021/06/17 07:41:15;;;;;;;9.00;6.22;;;26.60;99.90;;;;;;4964425;28;20462;-87
2021/06/17 07:43:42;;;;;;;9.75;6.15;;;26.70;99.90;;;;;;4968005;29;20041;-85
2021/06/17 07:46:09;;;;;;;7.55;6.10;;;26.70;99.90;;;;;;4973666;29;20040;-85
2021/06/17 07:48:38;;;;;;;9.55;6.32;;;26.80;99.90;;;;;;4974169;29;20035;-86
2021/06/17 07:51:07;;;;;;;9.43;5.80;;;26.90;99.90;;;;;;4973839;29;20126;-86
2021/06/17 07:53:35;;;;;;;7.35;5.68;;;26.90;99.90;;;;;;4973922;29;20539;-85
2021/06/17 07:56:02;;;;;;;8.73;6.03;;;27.00;99.90;;;;;;4974418;29;20047;-91
2021/06/17 07:58:29;;;;;;;7.43;5.78;;;27.10;99.90;;;;;;4975370;29;20035;-88
2021/06/17 08:00:56;;;;;;;9.85;6.07;;;27.10;99.90;;;;;;4981054;28;20039;-81
2021/06/17 08:03:23;;;;;;;9.90;6.10;;;27.30;99.90;;;;;;4980816;28;20549;-81
2021/06/17 08:05:51;;;;;;;8.43;5.47;;;27.40;99.90;;;;;;5012013;28;20043;-81
2021/06/17 08:08:18;;;;;;;8.95;5.75;;;27.50;99.90;;;;;;5023899;28;20037;-82
2021/06/17 08:10:44;;;;;;;8.48;5.90;;;27.70;99.90;;;;;;4996729;28;20129;-83
2021/06/17 08:13:11;;;;;;;10.00;5.90;;;27.70;99.90;;;;;;4995960;28;20050;-85
2021/06/17 08:15:38;;;;;;;9.80;6.07;;;27.80;99.90;;;;;;4965238;29;20043;-86
2021/06/17 08:18:05;;;;;;;9.65;5.80;;;27.90;99.90;;;;;;4943290;28;20039;-85
2021/06/17 08:20:32;;;;;;;9.52;6.05;;;27.80;99.90;;;;;;5012498;28;20062;-85
2021/06/17 08:22:59;;;;;;;8.73;5.90;;;28.00;99.90;;;;;;4987030;28;20069;-85
2021/06/17 08:25:26;;;;;;;12.10;6.63;;;28.20;99.90;;;;;;5012459;28;20042;-85
2021/06/17 08:27:53;;;;;;;7.25;5.68;;;28.30;99.90;;;;;;4997268;28;20479;-83
2021/06/17 08:30:22;;;;;;;9.77;5.63;;;28.30;99.90;;;;;;4980138;28;20125;-83
2021/06/17 08:32:49;;;;;;;7.63;5.60;;;28.30;99.90;;;;;;4964751;28;20066;-83
2021/06/17 08:35:16;;;;;;;7.20;5.18;;;28.40;99.90;;;;;;4969052;29;20031;-83
2021/06/17 08:37:43;;;;;;;9.25;5.65;;;28.50;99.90;;;;;;4941517;29;20042;-84
2021/06/17 08:40:10;;;;;;;8.45;5.85;;;28.60;99.90;;;;;;4973351;28;20035;-86
2021/06/17 08:42:37;;;;;;;8.27;5.88;;;28.70;99.70;;;;;;5029261;28;20403;-86
2021/06/17 08:45:08;;;;;;;8.23;5.47;;;28.80;99.50;;;;;;5028689;28;20039;-85
2021/06/17 08:47:36;;;;;;;10.98;5.10;;;29.00;99.20;;;;;;4996421;28;20039;-84
2021/06/17 08:50:08;;;;;;;9.65;5.82;;;29.10;99.30;;;;;;4979807;28;20089;-82
2021/06/17 08:52:39;;;;;;;7.30;5.22;;;29.10;98.90;;;;;;5008387;28;20038;-84
2021/06/17 08:55:25;;;;;;;8.45;5.70;;;29.10;99.00;;;;;;4976778;28;20105;-85
2021/06/17 08:57:54;;;;;;;7.93;6.13;;;29.20;99.20;;;;;;4992136;28;20530;-85
2021/06/17 09:00:21;;;;;;;8.10;5.38;;;29.40;99.10;;;;;;5007533;28;20093;-91
2021/06/17 09:03:01;;;;;;;13.52;5.50;;;29.50;98.20;;;;;;4992637;28;20439;-82
2021/06/17 09:05:30;;;;;;;7.28;5.03;;;29.60;98.00;;;;;;4992974;28;20070;-84
2021/06/17 09:07:58;;;;;;;9.60;5.18;;;29.70;97.50;;;;;;4991404;28;20122;-84
2021/06/17 09:10:25;;;;;;;9.20;5.25;;;29.90;97.00;;;;;;4991757;28;20046;-84
2021/06/17 09:12:54;;;;;;;9.35;5.68;;;30.00;97.90;;;;;;5008006;28;20055;-83
2021/06/17 09:15:33;;;;;;;10.15;5.18;;;30.20;96.90;;;;;;5007652;28;20039;-83
2021/06/17 09:18:21;;;;;;;10.27;5.10;;;30.30;97.00;;;;;;5007517;28;20041;-83
2021/06/17 09:21:02;;;;;;;7.07;4.88;;;30.30;96.70;;;;;;5007734;28;20472;-83
2021/06/17 09:23:33;;;;;;;7.57;5.05;;;30.40;96.50;;;;;;5007622;28;20038;-83
2021/06/17 09:26:05;;;;;;;8.35;5.05;;;30.50;96.90;;;;;;5007138;28;20086;-84
2021/06/17 09:29:05;;;;;;;6.93;4.60;;;30.60;95.00;;;;;;5007750;28;20046;-84
2021/06/17 09:31:34;;;;;;;8.77;5.20;;;30.60;94.10;;;;;;5003621;28;20054;-85
2021/06/17 09:34:03;;;;;;;8.70;4.72;;;30.80;94.70;;;;;;5007358;28;20435;-84
2021/06/17 09:36:32;;;;;;;7.75;4.80;;;30.90;94.60;;;;;;5007987;28;20084;-84
2021/06/17 09:39:21;;;;;;;9.18;4.88;;;31.00;94.60;;;;;;4991228;28;20039;-84
2021/06/17 09:41:50;;;;;;;8.73;4.00;;;31.20;94.30;;;;;;5008627;28;20057;-82
2021/06/17 09:44:41;;;;;;;9.18;4.50;;;31.10;93.40;;;;;;5007162;28;20074;-85
2021/06/17 09:47:15;;;;;;;9.18;4.38;;;31.20;91.90;;;;;;5007187;28;20042;-84
2021/06/17 09:49:43;;;;;;;;;;;31.20;91.60;;;;;;4992102;28;20396;-86
2021/06/17 09:52:11;;;;;;;5.65;4.72;;;31.30;93.10;;;;;;5007529;28;19918;-86
2021/06/17 09:54:40;;;;;;;6.03;4.43;;;31.50;92.70;;;;;;4975681;28;20141;-84
2021/06/17 09:57:09;;;;;;;6.57;4.50;;;31.60;92.70;;;;;;4991509;28;20105;-84
2021/06/17 09:59:49;;;;;;;8.05;4.10;;;31.70;93.00;;;;;;5007621;28;20126;-84
2021/06/17 10:02:30;;;;;;;7.97;3.85;;;31.80;91.70;;;;;;5006888;28;20049;-85
2021/06/17 10:05:19;;;;;;;6.38;4.00;;;31.80;90.70;;;;;;5007302;28;20039;-85
2021/06/17 10:07:48;;;;;;;6.88;3.95;;;31.80;88.20;;;;;;5008041;28;20043;-85
2021/06/17 10:10:17;;;;;;;6.55;3.75;;;32.00;86.80;;;;;;5007048;28;20478;-85
2021/06/17 10:12:44;;;;;;;6.15;3.50;;;32.10;85.10;;;;;;5013326;28;20034;-85
2021/06/17 10:15:11;;;;;;;6.82;3.80;;;32.10;85.00;;;;;;5014472;28;20038;-85
2021/06/17 10:17:38;;;;;;;8.18;3.80;;;32.10;84.80;;;;;;4997084;28;20038;-86
2021/06/17 10:20:08;;;;;;;9.73;4.15;;;32.10;84.10;;;;;;4978626;28;20066;-86
2021/06/17 10:22:37;;;;;;;6.22;3.17;;;32.30;81.30;;;;;;4994974;28;20039;-85
2021/06/17 10:25:05;;;;;;;6.32;3.15;;;32.20;81.10;;;;;;4975630;29;20031;-86
2021/06/17 10:27:42;;;;;;;6.22;3.38;;;32.30;79.50;;;;;;5010475;28;20118;-86
2021/06/17 10:30:13;;;;;;;4.10;2.88;;;32.40;79.80;;;;;;4960260;29;20039;-85
2021/06/17 10:32:45;;;;;;;11.13;3.25;;;32.60;79.20;;;;;;4960117;29;20051;-85
2021/06/17 10:35:26;;;;;;;4.30;2.95;;;32.70;75.00;;;;;;4960819;28;20039;-81
2021/06/17 10:37:55;;;;;;;5.40;3.30;;;32.90;72.60;;;;;;5012539;28;20469;-73
2021/06/17 10:40:25;;;;;;;5.53;2.92;;;32.80;73.20;;;;;;5010962;28;20046;-75
2021/06/17 10:43:29;;;;;;;5.97;2.85;;;32.80;71.50;;;;;;4995709;28;20039;-86
2021/06/17 10:45:57;;;;;;;6.85;2.90;;;32.80;71.20;;;;;;4980541;28;20043;-89
2021/06/17 10:48:40;;;;;;;5.47;2.85;;;32.90;73.80;;;;;;4980514;28;20096;-88
2021/06/17 10:51:08;;;;;;;11.90;2.80;;;32.80;71.60;;;;;;4975657;29;20039;-86
2021/06/17 10:53:35;;;;;;;7.63;2.92;;;33.10;71.40;;;;;;4957428;28;20041;-90
2021/06/17 10:56:18;;;;;;;4.95;2.75;;;33.10;72.30;;;;;;4995096;28;20039;-87
2021/06/17 10:58:45;;;;;;;8.48;2.72;;;33.20;67.70;;;;;;5012556;28;20038;-85
2021/06/17 11:01:35;;;;;;;3.28;2.08;;;33.20;68.20;;;;;;4993054;28;20050;-88
2021/06/17 11:04:11;;;;;;;4.35;2.45;;;33.30;67.90;;;;;;4995442;28;20426;-85
2021/06/17 11:06:53;;;;;;;6.45;2.60;;;33.30;67.90;;;;;;5027904;28;20034;-84
2021/06/17 11:09:39;;;;;;;5.40;2.42;;;33.20;67.70;;;;;;5013491;28;20045;-83
2021/06/17 11:12:18;;;;;;;3.22;2.20;;;33.40;67.10;;;;;;5006129;28;20046;-75
2021/06/17 11:15:31;;;;;;;5.07;2.50;;;33.40;68.30;;;;;;5016631;28;20046;-86
2021/06/17 11:17:58;;;;;;;4.82;2.72;;;33.30;64.80;;;;;;4992185;29;20039;-86
2021/06/17 11:20:35;;;;;;;6.18;2.42;;;33.40;67.20;;;;;;4955473;29;20046;-86
2021/06/17 11:23:02;;;;;;;6.93;2.70;;;33.50;66.70;;;;;;4974800;29;20035;-85
2021/06/17 11:25:32;;;;;;;5.57;2.50;;;33.40;64.80;;;;;;4955924;29;20051;-85
2021/06/17 11:28:02;;;;;;;8.48;2.20;;;33.50;65.10;;;;;;4959118;29;20059;-84
2021/06/17 11:30:38;;;;;;;6.20;2.58;;;33.60;64.70;;;;;;4979795;28;20126;-85
2021/06/17 11:33:20;;;;;;;4.53;2.85;;;33.60;65.30;;;;;;4990398;29;20039;-85
2021/06/17 11:35:58;;;;;;;5.28;2.60;;;33.70;65.90;;;;;;5007571;28;20109;-84
2021/06/17 11:38:32;;;;;;;5.82;2.60;;;33.80;66.50;;;;;;4989599;28;20066;-84
2021/06/17 11:41:09;;;;;;;5.57;2.40;;;33.70;65.50;;;;;;4994013;28;20045;-84
2021/06/17 11:43:36;;;;;;;4.22;2.35;;;33.70;65.00;;;;;;4995926;28;20047;-84
2021/06/17 11:46:03;;;;;;;7.90;2.50;;;33.70;64.80;;;;;;4972849;28;20039;-85
2021/06/17 11:48:32;;;;;;;4.60;2.63;;;33.60;65.80;;;;;;4977214;28;20493;-84
2021/06/17 11:50:59;;;;;;;7.63;2.50;;;33.60;65.20;;;;;;4970339;28;20034;-85
2021/06/17 11:53:26;;;;;;;3.22;2.33;;;33.70;65.10;;;;;;4974343;28;20117;-84
2021/06/17 11:55:56;;;;;;;7.07;2.67;;;33.70;63.90;;;;;;4979720;28;20035;-85
2021/06/17 11:58:27;;;;;;;6.50;2.50;;;33.80;62.90;;;;;;4993129;28;20043;-87
2021/06/17 12:00:54;;;;;;;5.05;2.50;;;33.80;64.70;;;;;;4962812;29;20404;-85
2021/06/17 12:03:25;;;;;;;5.50;2.58;;;33.80;65.00;;;;;;4970287;29;20080;-84
2021/06/17 12:06:13;;;;;;;5.20;2.42;;;33.90;63.90;;;;;;4957398;29;20403;-85
2021/06/17 12:08:39;;;;;;;5.50;2.50;;;33.90;62.40;;;;;;4970561;29;20374;-83
2021/06/17 12:11:17;;;;;;;6.85;2.40;;;34.00;63.20;;;;;;4938906;29;20047;-84
2021/06/17 12:13:51;;;;;;;8.75;2.60;;;34.00;63.60;;;;;;4962759;29;20048;-83
2021/06/17 12:16:18;;;;;;;;;;;34.00;59.80;;;;;;4954842;29;20038;-83
2021/06/17 12:18:45;;;;;;;6.18;2.42;;;33.90;61.60;;;;;;4954470;29;19929;-84
2021/06/17 12:21:29;;;;;;;4.63;2.05;;;34.00;62.20;;;;;;4938063;29;20040;-84
2021/06/17 12:23:59;;;;;;;7.13;2.67;;;33.90;61.60;;;;;;4959218;28;20070;-84
2021/06/17 12:26:31;;;;;;;4.28;2.70;;;34.00;63.30;;;;;;4962174;29;20499;-87
2021/06/17 12:29:11;;;;;;;8.43;2.60;;;34.00;64.00;;;;;;4954040;29;20044;-84
2021/06/17 12:31:40;;;;;;;4.60;2.80;;;33.90;62.40;;;;;;4987678;29;20451;-84
2021/06/17 12:34:11;;;;;;;6.78;2.33;;;34.00;62.70;;;;;;4972400;29;20106;-84
2021/06/17 12:36:38;;;;;;;5.63;2.42;;;34.10;62.10;;;;;;4983336;28;20034;-83
2021/06/17 12:39:16;;;;;;;4.03;2.20;;;34.20;62.10;;;;;;4980397;29;20506;-84
2021/06/17 12:41:49;;;;;;;7.22;2.40;;;34.30;60.80;;;;;;4984586;28;20396;-83
2021/06/17 12:44:30;;;;;;;4.57;2.50;;;34.30;60.60;;;;;;4990863;28;20039;-85
2021/06/17 12:47:02;;;;;;;5.50;2.40;;;34.30;59.20;;;;;;4971624;29;20071;-84
2021/06/17 12:52:14;;;;;;;7.65;2.40;;;34.30;59.10;;;;;;4964556;29;20046;-85
2021/06/17 12:54:48;;;;;;;3.47;2.00;;;34.30;59.70;;;;;;4946056;28;20122;-83
2021/06/17 12:57:20;;;;;;;5.72;2.30;;;34.20;57.80;;;;;;4972379;29;20043;-82
2021/06/17 12:59:54;;;;;;;6.03;2.47;;;34.20;58.80;;;;;;4974231;28;20046;-83
2021/06/17 13:02:21;;;;;;;4.65;2.45;;;34.20;58.80;;;;;;5008785;28;20039;-85